• Join FlightAware (Why Join?)
  • Login
  • US Flag 
Gobble Gobble! 
08:24PM EST


 

Airport Tracker/Info


-or-


 

Live Flight TrackerFlight Track Log ✈ CSN3239 ✈ 10-Jul-2013 ✈ ZGKL / KWL - ZGSZ / SZX

Flight Track Log - Related Links

Times and Time Zones

All times are in EDT time to prevent confusion due to time zone crossing. See the CSN3239 flight status page for this flight to view local times or setup timezone preferences in your user account.

Time Position Orientation Groundspeed Altitude Reporting Facility
EDT Latitude Longitude Course Direction KTS MPH feet Rate Location/Type
08:06PM 25.1531 110.1379 126° Southeast  Level Estimated
08:07PM 25.0881 110.2365 126° Southeast  Level Estimated
08:08PM 25.0230 110.3351 126° Southeast  Level Estimated
08:09PM 24.9578 110.4335 126° Southeast  Level Estimated
08:10PM 24.8926 110.5318 126° Southeast  Level Estimated
08:11PM 24.8273 110.6300 126° Southeast  Level Estimated
08:12PM 24.7619 110.7281 126° Southeast  Level Estimated
08:12PM 23.9090 111.5950 126° Southeast 457 526 24,600  Level FlightAware
08:13PM 24.6965 110.8261 126° Southeast  Level Estimated
08:13PM 23.8240 111.6850 136° Southeast 458 527 24,600  Level FlightAware
08:14PM 23.7770 111.7360 135° Southeast 458 527 24,600  Level FlightAware
08:14PM 23.7310 111.7860 135° Southeast 458 527 24,600  Level FlightAware
08:15PM 23.6700 111.8530 135° Southeast 458 527 24,600  Level FlightAware
08:16PM 23.6240 111.9030 135° Southeast 458 527 24,600  Level FlightAware
08:16PM 23.5780 111.9530 135° Southeast 458 527 24,600  Level FlightAware
08:17PM 23.4470 112.0880 137° Southeast 453 521 24,600  Level FlightAware
08:18PM 23.3610 112.1780 136° Southeast 451 519 24,600  Level FlightAware
08:19PM 23.3120 112.2310 135° Southeast 451 519 24,600 -1,800 Level FlightAware
08:20PM 23.2410 112.3060 136° Southeast 443 510 22,300 -2,700 Descending FlightAware
08:20PM 23.1770 112.3750 135° Southeast 428 493 20,800 -1,980 Descending FlightAware
08:21PM 23.1220 112.4310 137° Southeast 420 483 19,600 -1,080 Descending FlightAware
08:22PM 23.0590 112.5210 127° Southeast 416 479 19,100 -1,020 Descending FlightAware
08:22PM 23.0630 112.5940 87° East 406 467 18,100 -1,380 Descending FlightAware
08:23PM 23.0570 112.6880 94° East 405 466 17,400 -1,020 Descending FlightAware
08:24PM 23.0510 112.7760 94° East 387 445 16,600 -1,140 Descending FlightAware
08:25PM 23.0450 112.8500 95° East 356 410 15,800 -1,020 Descending FlightAware
08:25PM 23.0410 112.9150 94° East 327 376 15,300 -1,020 Descending FlightAware
08:26PM 23.0360 112.9810 95° East 312 359 14,500 -1,140 Descending FlightAware
08:27PM 23.0320 113.0500 94° East 307 353 13,700 -1,140 Descending FlightAware
08:27PM 23.0270 113.1150 95° East 308 354 12,900 -1,140 Descending FlightAware
08:28PM 23.0210 113.1780 96° East 305 351 12,200 -1,080 Descending FlightAware
08:28PM 23.0160 113.1930 110° East 299 344 12,000 -900 Descending FlightAware
08:28PM 23.0030 113.2080 133° Southeast 285 328 11,800 -420 Descending FlightAware
08:29PM 22.9830 113.2180 155° Southeast 270 311 11,800  Level FlightAware
08:29PM 22.9380 113.2370 159° South 248 285 11,800 -480 Level FlightAware
08:30PM 22.8990 113.2540 158° South 250 288 11,200 -1,440 Descending FlightAware
08:31PM 22.8550 113.2730 158° South 259 298 10,000 -2,040 Descending FlightAware
08:31PM 22.8210 113.2880 158° South 280 322 8,900 -1,860 Descending FlightAware
08:32PM 22.7880 113.3020 159° South 274 315 8,300 -900 Descending FlightAware
08:32PM 22.7640 113.3120 159° South 260 299 8,200 -420 Descending FlightAware
08:32PM 22.7350 113.3250 158° South 241 277 8,000 -300 Descending FlightAware
08:33PM 22.7180 113.3330 157° South 229 264 8,000 120 Level FlightAware
08:33PM 22.6900 113.3450 158° South 227 261 8,100 60 Climbing FlightAware
08:34PM 22.6630 113.3560 159° South 225 259 8,100  Level FlightAware
08:34PM 22.6510 113.3610 159° South 225 259 8,100 -180 Level FlightAware
08:34PM 22.6240 113.3730 158° South 226 260 8,000 -660 Descending FlightAware
08:35PM 22.5950 113.3850 159° South 227 261 7,500 -960 Descending FlightAware
08:35PM 22.5710 113.4020 147° Southeast 222 255 7,100 -1,080 Descending FlightAware
08:35PM 22.5670 113.4150 108° East 223 257 6,800 -1,260 Descending FlightAware
08:36PM 22.5750 113.4440 73° East 229 264 6,300 -960 Descending FlightAware
08:36PM 22.5840 113.4600 59° Northeast 228 262 6,100 -420 Descending FlightAware
08:37PM 22.6010 113.4860 55° Northeast 229 264 6,000  Descending FlightAware
08:37PM 22.6240 113.5080 41° Northeast 230 265 6,100 -360 Climbing FlightAware
08:38PM 22.6460 113.5300 43° Northeast 231 266 5,700 -1,020 Descending FlightAware
08:38PM 22.6670 113.5510 43° Northeast 231 266 5,200 -840 Descending FlightAware
08:38PM 22.6850 113.5680 41° Northeast 220 253 5,000 -660 Descending FlightAware
08:39PM 22.7100 113.5930 43° Northeast 201 231 4,600 -720 Descending FlightAware
08:40PM 22.7310 113.6080 33° Northeast 186 214 4,300 -660 Descending FlightAware
08:40PM 22.7520 113.6230 33° Northeast 180 207 4,000 -600 Descending FlightAware
08:40PM 22.7690 113.6360 35° Northeast 181 208 3,800 -780 Descending FlightAware
08:41PM 22.7780 113.6470 48° Northeast 181 208 3,500 -1,080 Descending FlightAware
08:41PM 22.7840 113.6560 54° Northeast 179 206 3,300 -960 Descending FlightAware
08:41PM 22.7900 113.6720 68° East 180 207 3,000 -840 Descending FlightAware
08:42PM 22.7820 113.6970 109° East 176 203 2,600 -660 Descending FlightAware
08:42PM 22.7710 113.7180 120° Southeast 171 197 2,400 -420 Descending FlightAware
08:42PM 22.7610 113.7260 144° Southeast 167 192 2,300 -660 Descending FlightAware
08:43PM 22.7530 113.7310 150° Southeast 161 185 2,100 -780 Descending FlightAware
08:43PM 22.7370 113.7400 153° Southeast 142 163 1,800 -720 Descending FlightAware
08:43PM 22.7260 113.7450 157° South 137 158 1,600 -720 Descending FlightAware
08:44PM 22.7120 113.7530 152° Southeast 139 160 1,300 -600 Descending FlightAware
08:44PM 22.7040 113.7580 150° Southeast 139 160 1,200 -600 Descending FlightAware
08:44PM 22.6880 113.7660 155° Southeast 139 160 900 -780 Descending FlightAware
08:45PM 22.6820 113.7700 148° Southeast 138 159 700 -720 Descending FlightAware
08:45PM 22.6630 113.7800 154° Southeast 137 158 400 -600 Descending FlightAware
08:46PM 22.6470 113.7890 153° Southeast 125 144 -840 Descending FlightAware
08:46PM 22.6400 113.7930 152° Southeast 72 83  Level FlightAware
08:46PM 22.6370 113.7950 148° Southeast 37 43  Level FlightAware
08:46PM 22.6350 113.7960 155° Southeast 26 30  Level FlightAware
08:47PM 22.6340 113.7980 118° Southeast 26 30  Level FlightAware
08:49PM 22.6400 113.8070 54° Northeast 12 14  Level FlightAware
08:50PM 22.6410 113.8080 43° Northeast 33 38  Level FlightAware
08:50PM 22.6420 113.8090 43° Northeast 29 33  Level FlightAware